Time;durP1;ratioP1;P1;durP2;ratioP2;P2;SDS_P1;SDS_P2;PMS_P1;PMS_P2;Temp;Humidity;BMP_temperature;BMP_pressure;BME280_temperature;BME280_humidity;BME280_pressure;Samples;Min_cycle;Max_cycle;Signal;HPM_P1;HPM_P2
2024/01/12 00:00:31;;;;;;;27.65;12.10;;;;;;;;;;5051161;28;20474;-87
2024/01/12 00:02:56;;;;;;;26.33;11.77;;;;;;;;;;5069348;28;20462;-88
2024/01/12 00:05:22;;;;;;;23.60;11.73;;;;;;;;;;5049553;28;20435;-89
2024/01/12 00:07:47;;;;;;;25.40;12.23;;;;;;;;;;5051788;28;20112;-87
2024/01/12 00:10:13;;;;;;;21.40;10.68;;;;;;;;;;5052854;28;20395;-87
2024/01/12 00:12:39;;;;;;;24.88;12.10;;;;;;;;;;5049003;28;20028;-87
2024/01/12 00:15:05;;;;;;;22.05;10.65;;;;;;;;;;5050975;28;20071;-88
2024/01/12 00:17:31;;;;;;;21.02;10.93;;;;;;;;;;5053546;28;20017;-87
2024/01/12 00:19:56;;;;;;;24.33;11.88;;;;;;;;;;5053082;28;20044;-87
2024/01/12 00:22:23;;;;;;;22.35;10.95;;;;;;;;;;5055657;28;20405;-88
2024/01/12 00:24:49;;;;;;;24.05;12.38;;;;;;;;;;5048185;28;20075;-87
2024/01/12 00:27:14;;;;;;;21.30;10.02;;;;;;;;;;5054254;28;20305;-87
2024/01/12 00:29:40;;;;;;;21.15;10.50;;;;;;;;;;5046746;28;20515;-87
2024/01/12 00:32:06;;;;;;;22.52;10.57;;;;;;;;;;5053005;28;20437;-88
2024/01/12 00:34:32;;;;;;;22.67;10.90;;;;;;;;;;5050440;28;20111;-87
2024/01/12 00:36:57;;;;;;;25.60;11.13;;;;;;;;;;5045398;28;20116;-88
2024/01/12 00:39:23;;;;;;;22.55;11.13;;;;;;;;;;5052442;28;20024;-87
2024/01/12 00:41:50;;;;;;;24.40;11.52;;;;;;;;;;5049174;28;20041;-88
2024/01/12 00:44:18;;;;;;;21.40;10.98;;;;;;;;;;5049958;28;20028;-87
2024/01/12 00:46:45;;;;;;;25.05;12.00;;;;;;;;;;5050514;28;20024;-88
2024/01/12 00:49:11;;;;;;;21.60;10.93;;;;;;;;;;5062315;28;20028;-87
2024/01/12 00:51:36;;;;;;;22.05;10.15;;;;;;;;;;5073149;28;20123;-88
2024/01/12 00:54:02;;;;;;;20.48;11.32;;;;;;;;;;5052734;28;20497;-88
2024/01/12 00:56:28;;;;;;;22.02;10.75;;;;;;;;;;5053881;28;20024;-88
2024/01/12 00:58:53;;;;;;;21.23;11.05;;;;;;;;;;5051631;28;20032;-88
2024/01/12 01:01:19;;;;;;;23.10;11.32;;;;;;;;;;5048082;28;20044;-88
2024/01/12 01:03:44;;;;;;;22.23;10.60;;;;;;;;;;5049230;28;20020;-87
2024/01/12 01:06:10;;;;;;;23.25;11.60;;;;;;;;;;5049143;28;20031;-87
2024/01/12 01:08:35;;;;;;;23.60;11.00;;;;;;;;;;5051598;28;20029;-87
2024/01/12 01:11:01;;;;;;;27.58;11.60;;;;;;;;;;5051263;28;20107;-87
2024/01/12 01:13:26;;;;;;;23.92;11.43;;;;;;;;;;5053317;28;20030;-88
2024/01/12 01:15:51;;;;;;;22.98;10.52;;;;;;;;;;5051358;28;20043;-88
2024/01/12 01:18:17;;;;;;;23.83;11.60;;;;;;;;;;5050132;28;20391;-88
2024/01/12 01:20:43;;;;;;;22.10;11.23;;;;;;;;;;5045427;28;20050;-87
2024/01/12 01:23:09;;;;;;;21.85;10.48;;;;;;;;;;5053202;28;20069;-87
2024/01/12 01:25:36;;;;;;;21.38;11.07;;;;;;;;;;5053163;28;20017;-87
2024/01/12 01:28:02;;;;;;;23.45;10.98;;;;;;;;;;5046254;28;20029;-87
2024/01/12 01:30:27;;;;;;;24.02;11.32;;;;;;;;;;5048438;28;20021;-87
2024/01/12 01:32:53;;;;;;;22.00;11.18;;;;;;;;;;5050952;28;20025;-88
2024/01/12 01:35:19;;;;;;;24.25;11.52;;;;;;;;;;5046056;28;20130;-87
2024/01/12 01:37:44;;;;;;;24.27;11.50;;;;;;;;;;5054961;28;20020;-87
2024/01/12 01:40:10;;;;;;;21.90;11.18;;;;;;;;;;5051599;28;20028;-86
2024/01/12 01:42:35;;;;;;;29.77;12.27;;;;;;;;;;5047556;28;20178;-87
2024/01/12 01:45:02;;;;;;;26.17;12.05;;;;;;;;;;5050045;28;20033;-87
2024/01/12 01:47:28;;;;;;;26.10;12.38;;;;;;;;;;5045282;28;20021;-87
2024/01/12 01:49:55;;;;;;;19.95;10.07;;;;;;;;;;5046630;28;20036;-87
2024/01/12 01:52:23;;;;;;;24.67;12.13;;;;;;;;;;5046798;28;20025;-88
2024/01/12 01:54:48;;;;;;;22.52;10.85;;;;;;;;;;5061340;28;20025;-88
2024/01/12 01:57:15;;;;;;;23.60;11.23;;;;;;;;;;5046535;28;20082;-88
2024/01/12 01:59:41;;;;;;;20.75;10.60;;;;;;;;;;5046296;28;20028;-88
2024/01/12 02:02:08;;;;;;;21.25;10.18;;;;;;;;;;5047243;28;20047;-87
2024/01/12 02:04:34;;;;;;;20.90;10.40;;;;;;;;;;5058709;28;20027;-87
2024/01/12 02:06:59;;;;;;;24.77;11.23;;;;;;;;;;5030637;28;20028;-88
2024/01/12 02:09:27;;;;;;;23.15;11.20;;;;;;;;;;5049536;28;20029;-87
2024/01/12 02:11:52;;;;;;;24.10;11.45;;;;;;;;;;5044728;28;20223;-88
2024/01/12 02:14:18;;;;;;;23.30;11.60;;;;;;;;;;5048769;28;20131;-88
2024/01/12 02:16:43;;;;;;;25.38;12.10;;;;;;;;;;5042763;28;20457;-87
2024/01/12 02:19:08;;;;;;;25.60;11.80;;;;;;;;;;5050647;28;21749;-88
2024/01/12 02:21:34;;;;;;;23.60;11.68;;;;;;;;;;5048845;28;20029;-88
2024/01/12 02:23:59;;;;;;;24.80;11.93;;;;;;;;;;5062542;28;20028;-88
2024/01/12 02:26:25;;;;;;;24.83;11.95;;;;;;;;;;5052689;28;20028;-88
2024/01/12 02:28:51;;;;;;;22.50;10.95;;;;;;;;;;5050170;28;20021;-87
2024/01/12 02:31:17;;;;;;;21.23;10.57;;;;;;;;;;5048629;28;20475;-88
2024/01/12 02:33:42;;;;;;;26.17;11.45;;;;;;;;;;5052223;28;20028;-88
2024/01/12 02:36:07;;;;;;;20.63;10.85;;;;;;;;;;5052115;28;20402;-88
2024/01/12 02:38:35;;;;;;;19.98;10.48;;;;;;;;;;5049720;28;20048;-87
2024/01/12 02:41:00;;;;;;;23.50;11.52;;;;;;;;;;5050604;28;20033;-87
2024/01/12 02:43:26;;;;;;;23.85;11.20;;;;;;;;;;5050731;28;20517;-87
2024/01/12 02:45:51;;;;;;;22.58;12.15;;;;;;;;;;5049520;28;20048;-88
2024/01/12 02:48:16;;;;;;;24.08;11.73;;;;;;;;;;5067629;28;20435;-89
2024/01/12 02:50:42;;;;;;;20.92;10.52;;;;;;;;;;5046592;28;20119;-88
2024/01/12 02:53:09;;;;;;;23.13;11.35;;;;;;;;;;5049061;28;20036;-88
2024/01/12 02:55:34;;;;;;;21.83;10.63;;;;;;;;;;5066332;28;20028;-88
2024/01/12 02:58:00;;;;;;;26.30;10.82;;;;;;;;;;5045622;28;20389;-87
2024/01/12 03:00:25;;;;;;;20.85;10.23;;;;;;;;;;5051380;28;20402;-87
2024/01/12 03:02:50;;;;;;;21.48;10.32;;;;;;;;;;5046406;28;20033;-86
2024/01/12 03:05:16;;;;;;;24.67;11.65;;;;;;;;;;5073060;28;20020;-87
2024/01/12 03:07:41;;;;;;;23.20;12.02;;;;;;;;;;5050869;28;20028;-89
2024/01/12 03:10:07;;;;;;;22.45;11.02;;;;;;;;;;5049289;28;20642;-87
2024/01/12 03:12:33;;;;;;;21.48;10.98;;;;;;;;;;5053089;28;20375;-87
2024/01/12 03:14:58;;;;;;;21.30;10.45;;;;;;;;;;5045416;28;20317;-88
2024/01/12 03:17:23;;;;;;;25.33;10.60;;;;;;;;;;5052413;28;20396;-87
2024/01/12 03:19:49;;;;;;;21.77;10.45;;;;;;;;;;5048950;28;20395;-88
2024/01/12 03:22:14;;;;;;;26.95;11.93;;;;;;;;;;5050513;28;20021;-88
2024/01/12 03:24:40;;;;;;;22.77;11.23;;;;;;;;;;5051975;28;20040;-87
2024/01/12 03:27:05;;;;;;;18.00;10.45;;;;;;;;;;5049819;28;20044;-88
2024/01/12 03:29:30;;;;;;;24.13;11.55;;;;;;;;;;5048962;28;20421;-87
2024/01/12 03:31:56;;;;;;;19.95;9.75;;;;;;;;;;5048429;28;20415;-87
2024/01/12 03:34:21;;;;;;;22.33;10.48;;;;;;;;;;5052736;28;20107;-88
2024/01/12 03:36:47;;;;;;;21.63;10.07;;;;;;;;;;5053345;28;20584;-87
2024/01/12 03:39:13;;;;;;;21.75;10.48;;;;;;;;;;5053157;28;20709;-88
2024/01/12 03:41:38;;;;;;;20.90;9.90;;;;;;;;;;5049441;28;20089;-88
2024/01/12 03:44:03;;;;;;;19.88;9.43;;;;;;;;;;5047907;28;20496;-88
2024/01/12 03:46:29;;;;;;;22.77;9.80;;;;;;;;;;5045054;28;20032;-87
2024/01/12 03:48:55;;;;;;;19.13;8.95;;;;;;;;;;5052674;28;20027;-89
2024/01/12 03:51:21;;;;;;;21.13;9.57;;;;;;;;;;5051312;28;20501;-88
2024/01/12 03:53:46;;;;;;;21.48;9.20;;;;;;;;;;5052046;28;20064;-88
2024/01/12 03:56:11;;;;;;;20.63;9.55;;;;;;;;;;5050176;28;20020;-89
2024/01/12 03:58:38;;;;;;;18.80;8.40;;;;;;;;;;5052789;28;20021;-88
2024/01/12 04:01:07;;;;;;;20.48;9.05;;;;;;;;;;5053723;28;20043;-88
2024/01/12 04:03:32;;;;;;;18.60;9.23;;;;;;;;;;5051038;28;20020;-89
2024/01/12 04:05:59;;;;;;;21.48;9.23;;;;;;;;;;5052762;28;20029;-88
2024/01/12 04:08:24;;;;;;;19.25;9.05;;;;;;;;;;5052175;28;20024;-88
2024/01/12 04:10:50;;;;;;;21.23;9.57;;;;;;;;;;5052174;28;20024;-89
2024/01/12 04:13:15;;;;;;;19.20;9.25;;;;;;;;;;5053724;28;20496;-88
2024/01/12 04:15:40;;;;;;;17.10;7.70;;;;;;;;;;5050624;28;20474;-88
2024/01/12 04:18:06;;;;;;;17.63;8.98;;;;;;;;;;5051297;28;20406;-88
2024/01/12 04:20:31;;;;;;;17.20;7.40;;;;;;;;;;5051641;28;20390;-89
2024/01/12 04:22:57;;;;;;;18.33;8.75;;;;;;;;;;5052554;28;20371;-88
2024/01/12 04:25:22;;;;;;;19.08;8.30;;;;;;;;;;5052871;28;20084;-87
2024/01/12 04:27:48;;;;;;;20.70;9.13;;;;;;;;;;5054295;28;20024;-88
2024/01/12 04:30:13;;;;;;;18.45;8.15;;;;;;;;;;5052157;28;20097;-89
2024/01/12 04:32:38;;;;;;;18.85;8.13;;;;;;;;;;5051862;28;20081;-89
2024/01/12 04:35:04;;;;;;;19.02;7.72;;;;;;;;;;5052155;28;20035;-88
2024/01/12 04:37:30;;;;;;;18.75;7.25;;;;;;;;;;5054136;28;20039;-87
2024/01/12 04:39:55;;;;;;;15.57;7.65;;;;;;;;;;5050406;28;20433;-89
2024/01/12 04:42:20;;;;;;;18.35;8.07;;;;;;;;;;5055454;28;20028;-88
2024/01/12 04:44:46;;;;;;;16.98;7.78;;;;;;;;;;5051500;28;20039;-89
2024/01/12 04:47:11;;;;;;;14.57;7.25;;;;;;;;;;5053060;28;20024;-89
2024/01/12 04:49:37;;;;;;;19.33;8.50;;;;;;;;;;5053682;28;20024;-89
2024/01/12 04:52:03;;;;;;;17.10;7.47;;;;;;;;;;5051606;28;20039;-89
2024/01/12 04:54:28;;;;;;;20.15;7.82;;;;;;;;;;5052007;28;20071;-89
2024/01/12 04:56:53;;;;;;;18.98;8.32;;;;;;;;;;5054585;28;20020;-89
2024/01/12 04:59:19;;;;;;;15.20;6.70;;;;;;;;;;5046082;28;20122;-80
2024/01/12 05:01:44;;;;;;;19.77;7.55;;;;;;;;;;5066623;28;20103;-79
2024/01/12 05:04:12;;;;;;;19.58;7.30;;;;;;;;;;5062574;28;20052;-79
2024/01/12 05:06:38;;;;;;;20.33;7.53;;;;;;;;;;5065465;28;20024;-79
2024/01/12 05:09:06;;;;;;;15.25;7.28;;;;;;;;;;5065572;28;20113;-79
2024/01/12 05:11:32;;;;;;;13.63;6.43;;;;;;;;;;5064973;28;20048;-79
2024/01/12 05:13:58;;;;;;;19.80;8.02;;;;;;;;;;5050259;28;20028;-80
2024/01/12 05:16:23;;;;;;;17.83;7.22;;;;;;;;;;5065486;28;20616;-79
2024/01/12 05:18:51;;;;;;;18.92;8.00;;;;;;;;;;5062623;28;20046;-80
2024/01/12 05:21:17;;;;;;;19.33;7.47;;;;;;;;;;5066412;28;20478;-80
2024/01/12 05:23:44;;;;;;;14.35;6.85;;;;;;;;;;5067632;28;20035;-79
2024/01/12 05:26:15;;;;;;;17.15;7.78;;;;;;;;;;5066304;28;20184;-79
2024/01/12 05:28:42;;;;;;;17.90;7.43;;;;;;;;;;5067926;28;20363;-80
2024/01/12 05:31:11;;;;;;;18.50;8.05;;;;;;;;;;5062437;28;20028;-80
2024/01/12 05:33:36;;;;;;;17.05;7.60;;;;;;;;;;5046621;28;20479;-80
2024/01/12 05:36:02;;;;;;;16.25;7.28;;;;;;;;;;5066845;28;20043;-80
2024/01/12 05:38:27;;;;;;;12.88;7.07;;;;;;;;;;5068391;28;20475;-79
2024/01/12 05:40:54;;;;;;;18.92;7.78;;;;;;;;;;5066241;28;20025;-80
2024/01/12 05:43:21;;;;;;;14.65;6.50;;;;;;;;;;5063105;28;20032;-80
2024/01/12 05:45:47;;;;;;;17.88;7.32;;;;;;;;;;5066442;28;20024;-79
2024/01/12 05:48:12;;;;;;;15.95;6.68;;;;;;;;;;5064761;28;20035;-78
2024/01/12 05:50:38;;;;;;;13.60;6.40;;;;;;;;;;5059424;28;20028;-80
2024/01/12 05:53:05;;;;;;;16.13;6.28;;;;;;;;;;5061723;28;20032;-79
2024/01/12 05:55:30;;;;;;;14.10;6.68;;;;;;;;;;5065162;28;20051;-79
2024/01/12 05:57:56;;;;;;;12.80;6.28;;;;;;;;;;5063166;28;20755;-80
2024/01/12 06:00:21;;;;;;;16.02;6.70;;;;;;;;;;5063351;28;20658;-80
2024/01/12 06:02:50;;;;;;;18.98;7.03;;;;;;;;;;5065976;28;20393;-80
2024/01/12 06:05:15;;;;;;;17.23;6.43;;;;;;;;;;5065209;28;20048;-80
2024/01/12 06:07:43;;;;;;;17.17;6.50;;;;;;;;;;5058527;28;20113;-80
2024/01/12 06:10:08;;;;;;;18.05;6.50;;;;;;;;;;5066697;28;20036;-80
2024/01/12 06:12:35;;;;;;;13.75;6.00;;;;;;;;;;5062157;28;20035;-80
2024/01/12 06:15:01;;;;;;;21.15;7.40;;;;;;;;;;5068236;28;20029;-80
2024/01/12 06:17:26;;;;;;;15.80;5.35;;;;;;;;;;5068002;28;20016;-80
2024/01/12 06:19:52;;;;;;;14.77;5.18;;;;;;;;;;5070304;28;20032;-80
2024/01/12 06:22:17;;;;;;;12.48;4.90;;;;;;;;;;5070326;28;20415;-80
2024/01/12 06:24:43;;;;;;;16.73;5.40;;;;;;;;;;5070662;28;20415;-79
2024/01/12 06:27:08;;;;;;;17.05;5.53;;;;;;;;;;5072176;28;20027;-80
2024/01/12 06:29:35;;;;;;;13.57;5.65;;;;;;;;;;5070877;28;20026;-79
2024/01/12 06:32:03;;;;;;;14.00;5.60;;;;;;;;;;5066225;28;20028;-80
2024/01/12 06:34:28;;;;;;;14.18;5.38;;;;;;;;;;5072600;28;20032;-80
2024/01/12 06:36:58;;;;;;;14.02;5.53;;;;;;;;;;5069309;28;20437;-80
2024/01/12 06:39:25;;;;;;;13.95;5.60;;;;;;;;;;5066691;28;20055;-80
2024/01/12 06:41:52;;;;;;;12.70;5.65;;;;;;;;;;5064907;28;20033;-80
2024/01/12 06:44:18;;;;;;;11.13;5.43;;;;;;;;;;5070000;28;20033;-80
2024/01/12 06:46:43;;;;;;;14.70;6.00;;;;;;;;;;5070476;28;20445;-80
2024/01/12 06:49:10;;;;;;;12.90;5.75;;;;;;;;;;5049301;28;20619;-80
2024/01/12 06:51:37;;;;;;;12.80;5.78;;;;;;;;;;5063497;28;20483;-80
2024/01/12 06:54:03;;;;;;;16.27;6.13;;;;;;;;;;5065151;28;20025;-80
2024/01/12 06:56:29;;;;;;;13.13;5.80;;;;;;;;;;5066533;28;20024;-80
2024/01/12 06:58:54;;;;;;;12.93;5.13;;;;;;;;;;5068282;28;20426;-80
2024/01/12 07:01:20;;;;;;;14.20;5.90;;;;;;;;;;5068141;28;20789;-80
2024/01/12 07:03:46;;;;;;;13.25;5.43;;;;;;;;;;5065355;28;20020;-79
2024/01/12 07:06:13;;;;;;;11.82;5.68;;;;;;;;;;5067427;28;20078;-79
2024/01/12 07:08:38;;;;;;;14.13;5.63;;;;;;;;;;5064377;28;20027;-79
2024/01/12 07:11:06;;;;;;;14.43;6.15;;;;;;;;;;5068356;28;20405;-79
2024/01/12 07:13:33;;;;;;;15.23;6.25;;;;;;;;;;5072084;28;20065;-80
2024/01/12 07:15:59;;;;;;;11.77;5.25;;;;;;;;;;5070654;28;20032;-80
2024/01/12 07:18:24;;;;;;;15.32;5.80;;;;;;;;;;5073229;28;20020;-89
2024/01/12 07:20:50;;;;;;;13.95;5.57;;;;;;;;;;5053976;28;20020;-88
2024/01/12 07:23:15;;;;;;;15.65;5.85;;;;;;;;;;5052719;28;20028;-89
2024/01/12 07:25:41;;;;;;;9.90;5.55;;;;;;;;;;5061341;28;20024;-89
2024/01/12 07:28:06;;;;;;;11.60;5.20;;;;;;;;;;5055323;28;20067;-88
2024/01/12 07:30:32;;;;;;;10.52;5.18;;;;;;;;;;5052869;28;20395;-89
2024/01/12 07:32:58;;;;;;;14.48;5.05;;;;;;;;;;5051678;28;20029;-88
2024/01/12 07:35:24;;;;;;;9.60;4.63;;;;;;;;;;5049565;28;20028;-89
2024/01/12 07:37:51;;;;;;;10.50;4.68;;;;;;;;;;5054804;28;20510;-89
2024/01/12 07:40:17;;;;;;;12.40;4.95;;;;;;;;;;5054712;28;20030;-87
2024/01/12 07:42:43;;;;;;;12.63;5.10;;;;;;;;;;5046348;28;20110;-89
2024/01/12 07:45:10;;;;;;;11.27;4.30;;;;;;;;;;5052910;28;20482;-88
2024/01/12 07:47:36;;;;;;;11.57;4.38;;;;;;;;;;5061981;28;20036;-89
2024/01/12 07:50:01;;;;;;;14.13;4.50;;;;;;;;;;5038624;28;20032;-89
2024/01/12 07:52:26;;;;;;;12.50;4.60;;;;;;;;;;5057065;28;20078;-89
2024/01/12 07:54:52;;;;;;;16.60;5.35;;;;;;;;;;5055355;28;20453;-89
2024/01/12 07:57:17;;;;;;;13.15;5.25;;;;;;;;;;5052719;28;20437;-89
2024/01/12 07:59:43;;;;;;;11.57;5.10;;;;;;;;;;5054920;28;20470;-88
2024/01/12 08:02:08;;;;;;;11.65;5.00;;;;;;;;;;5053323;28;20114;-88
2024/01/12 08:04:38;;;;;;;11.18;4.53;;;;;;;;;;5051328;28;20044;-89
2024/01/12 08:07:04;;;;;;;13.13;5.63;;;;;;;;;;5052804;28;20123;-89
2024/01/12 08:09:30;;;;;;;13.15;5.50;;;;;;;;;;5052716;28;20036;-88
2024/01/12 08:11:55;;;;;;;12.80;5.18;;;;;;;;;;5051162;28;20020;-88
2024/01/12 08:14:20;;;;;;;10.43;5.47;;;;;;;;;;5055104;28;20567;-88
2024/01/12 08:16:46;;;;;;;11.13;5.47;;;;;;;;;;5051946;28;20052;-88
2024/01/12 08:19:12;;;;;;;13.13;5.63;;;;;;;;;;5055212;28;20028;-88
2024/01/12 08:21:37;;;;;;;11.30;5.60;;;;;;;;;;5056168;28;20042;-89
2024/01/12 08:24:03;;;;;;;15.45;5.28;;;;;;;;;;5053401;28;20110;-88
2024/01/12 08:26:28;;;;;;;13.80;6.15;;;;;;;;;;5052934;28;20409;-90
2024/01/12 08:28:56;;;;;;;14.13;5.85;;;;;;;;;;5050141;28;20566;-80
2024/01/12 08:31:23;;;;;;;11.55;5.75;;;;;;;;;;5062292;28;20060;-80
2024/01/12 08:33:49;;;;;;;15.40;6.25;;;;;;;;;;5067726;28;20028;-80
2024/01/12 08:36:17;;;;;;;12.63;5.65;;;;;;;;;;5061623;28;20066;-80
2024/01/12 08:38:42;;;;;;;12.95;5.53;;;;;;;;;;5059060;28;20031;-80
2024/01/12 08:41:08;;;;;;;15.52;5.80;;;;;;;;;;5062791;28;20016;-80
2024/01/12 08:43:37;;;;;;;11.20;4.95;;;;;;;;;;5063095;28;20051;-80
2024/01/12 08:46:02;;;;;;;13.15;5.40;;;;;;;;;;5063161;28;20032;-79
2024/01/12 08:48:28;;;;;;;12.30;5.50;;;;;;;;;;5060830;28;20078;-81
2024/01/12 08:50:56;;;;;;;14.00;5.03;;;;;;;;;;5061759;28;20060;-80
2024/01/12 08:53:21;;;;;;;13.88;5.80;;;;;;;;;;5064407;28;20023;-80
2024/01/12 08:55:47;;;;;;;16.08;5.47;;;;;;;;;;5049437;28;20036;-81
2024/01/12 08:58:12;;;;;;;11.93;5.30;;;;;;;;;;5068535;28;20405;-81
2024/01/12 09:00:38;;;;;;;16.05;5.97;;;;;;;;;;5044739;28;20035;-80
2024/01/12 09:03:03;;;;;;;13.52;5.90;;;;;;;;;;5069219;28;20078;-80
2024/01/12 09:05:29;;;;;;;11.85;5.35;;;;;;;;;;5071255;28;20738;-80
2024/01/12 09:07:55;;;;;;;11.30;5.80;;;;;;;;;;5047945;28;20113;-81
2024/01/12 09:10:22;;;;;;;10.68;5.43;;;;;;;;;;5071418;28;20116;-81
2024/01/12 09:12:50;;;;;;;11.35;5.45;;;;;;;;;;5068284;28;20024;-81
2024/01/12 09:15:15;;;;;;;14.48;5.55;;;;;;;;;;5067113;28;20031;-81
2024/01/12 09:17:41;;;;;;;14.05;5.85;;;;;;;;;;5053431;28;20021;-81
2024/01/12 09:20:07;;;;;;;13.02;6.15;;;;;;;;;;5067541;28;20051;-81
2024/01/12 09:22:34;;;;;;;11.50;5.45;;;;;;;;;;5066577;28;20032;-81
2024/01/12 09:25:00;;;;;;;12.10;6.10;;;;;;;;;;5062452;28;20138;-81
2024/01/12 09:27:25;;;;;;;17.25;6.68;;;;;;;;;;5066651;28;20218;-81
2024/01/12 09:29:55;;;;;;;15.75;6.68;;;;;;;;;;5051344;28;20020;-81
2024/01/12 09:32:22;;;;;;;12.80;6.15;;;;;;;;;;5070035;28;20032;-81
2024/01/12 09:34:48;;;;;;;16.55;6.38;;;;;;;;;;5069707;28;20095;-81
2024/01/12 09:37:14;;;;;;;14.02;7.00;;;;;;;;;;5070025;28;20116;-80
2024/01/12 09:39:39;;;;;;;15.38;7.10;;;;;;;;;;5045710;28;20040;-81
2024/01/12 09:42:08;;;;;;;14.63;6.88;;;;;;;;;;5069808;28;20028;-81
2024/01/12 09:44:37;;;;;;;14.15;6.60;;;;;;;;;;5063687;28;20506;-81
2024/01/12 09:47:03;;;;;;;13.63;6.85;;;;;;;;;;5063537;28;20024;-81
2024/01/12 09:49:30;;;;;;;14.70;7.18;;;;;;;;;;5045274;28;20048;-81
2024/01/12 09:51:57;;;;;;;14.73;6.30;;;;;;;;;;5058771;28;20596;-81
2024/01/12 09:54:23;;;;;;;16.77;6.38;;;;;;;;;;5064208;28;20036;-81
2024/01/12 09:56:51;;;;;;;16.52;6.22;;;;;;;;;;5061528;28;20132;-82
2024/01/12 09:59:18;;;;;;;10.93;5.95;;;;;;;;;;5064360;28;20029;-81
2024/01/12 10:01:45;;;;;;;14.10;6.15;;;;;;;;;;5061403;28;20048;-81
2024/01/12 10:04:12;;;;;;;16.35;6.40;;;;;;;;;;5062342;28;20031;-81
2024/01/12 10:06:38;;;;;;;16.27;6.18;;;;;;;;;;5062550;28;20028;-81
2024/01/12 10:09:04;;;;;;;17.13;6.28;;;;;;;;;;5062798;28;20032;-81
2024/01/12 10:11:29;;;;;;;13.02;6.05;;;;;;;;;;5061848;28;20062;-81
2024/01/12 10:13:55;;;;;;;16.10;7.07;;;;;;;;;;5061185;28;20028;-81
2024/01/12 10:16:22;;;;;;;17.45;6.70;;;;;;;;;;5062698;28;20458;-81
2024/01/12 10:18:48;;;;;;;13.40;6.13;;;;;;;;;;5045426;28;20115;-81
2024/01/12 10:21:14;;;;;;;14.88;6.28;;;;;;;;;;5064971;28;20029;-81
2024/01/12 10:23:41;;;;;;;11.63;6.03;;;;;;;;;;5065341;28;20405;-82
2024/01/12 10:26:08;;;;;;;21.27;6.97;;;;;;;;;;5062822;28;20024;-81
2024/01/12 10:28:34;;;;;;;12.80;5.28;;;;;;;;;;5062292;28;20064;-81
2024/01/12 10:31:06;;;;;;;13.98;6.30;;;;;;;;;;5063430;28;20060;-81
2024/01/12 10:33:33;;;;;;;14.95;5.53;;;;;;;;;;5061694;28;20032;-81
2024/01/12 10:36:23;;;;;;;12.38;5.78;;;;;;;;;;5064995;28;20036;-82
2024/01/12 10:38:50;;;;;;;16.38;5.57;;;;;;;;;;5046080;28;20108;-82
2024/01/12 10:41:20;;;;;;;16.23;6.13;;;;;;;;;;5062051;28;20055;-81
2024/01/12 10:43:53;;;;;;;14.73;5.85;;;;;;;;;;5061259;28;20036;-81
2024/01/12 10:46:48;;;;;;;17.60;6.55;;;;;;;;;;5062003;28;20032;-82
2024/01/12 10:49:25;;;;;;;13.68;6.25;;;;;;;;;;5043640;28;20174;-82
2024/01/12 10:52:32;;;;;;;13.77;5.75;;;;;;;;;;5062598;28;20241;-85
2024/01/12 10:55:07;;;;;;;15.05;4.97;;;;;;;;;;5033955;28;20040;-85
2024/01/12 10:57:33;;;;;;;9.88;5.03;;;;;;;;;;5063127;28;20017;-85
2024/01/12 10:59:59;;;;;;;14.38;5.95;;;;;;;;;;5061891;28;20035;-85
2024/01/12 11:02:25;;;;;;;12.40;5.30;;;;;;;;;;5044342;28;20024;-85
2024/01/12 11:04:52;;;;;;;12.15;5.60;;;;;;;;;;5062287;28;20094;-85
2024/01/12 11:07:18;;;;;;;12.00;4.80;;;;;;;;;;5043686;28;20048;-85
2024/01/12 11:09:44;;;;;;;12.95;5.30;;;;;;;;;;5062133;28;20074;-85
2024/01/12 11:12:12;;;;;;;11.48;4.68;;;;;;;;;;5062685;28;20032;-84
2024/01/12 11:14:39;;;;;;;8.73;4.35;;;;;;;;;;5063190;28;20039;-85
2024/01/12 11:17:05;;;;;;;11.68;4.80;;;;;;;;;;5058959;28;20494;-85
2024/01/12 11:19:32;;;;;;;12.95;5.10;;;;;;;;;;5062356;28;20483;-85
2024/01/12 11:22:09;;;;;;;11.10;4.75;;;;;;;;;;5064028;28;20044;-85
2024/01/12 11:24:36;;;;;;;11.63;4.80;;;;;;;;;;5061146;28;20047;-84
2024/01/12 11:27:03;;;;;;;12.98;4.80;;;;;;;;;;5063268;28;20458;-85
2024/01/12 11:29:35;;;;;;;13.02;5.03;;;;;;;;;;5066369;28;20052;-85
2024/01/12 11:32:02;;;;;;;11.80;4.55;;;;;;;;;;5063351;28;20028;-85
2024/01/12 11:34:35;;;;;;;16.52;5.53;;;;;;;;;;5063485;28;20021;-85
2024/01/12 11:37:02;;;;;;;13.68;5.47;;;;;;;;;;5060648;28;20033;-85
2024/01/12 11:39:36;;;;;;;11.32;5.10;;;;;;;;;;5063022;28;20086;-85
2024/01/12 11:42:02;;;;;;;13.10;5.22;;;;;;;;;;5064563;28;20047;-85
2024/01/12 11:44:28;;;;;;;12.20;4.90;;;;;;;;;;5063083;28;20108;-84
2024/01/12 11:46:54;;;;;;;12.30;4.55;;;;;;;;;;5052474;28;20111;-84
2024/01/12 11:49:20;;;;;;;13.30;4.90;;;;;;;;;;5067199;28;20036;-84
2024/01/12 11:51:45;;;;;;;10.98;5.30;;;;;;;;;;5067303;28;20024;-84
2024/01/12 11:54:11;;;;;;;14.00;5.30;;;;;;;;;;5064579;28;20040;-85
2024/01/12 11:56:41;;;;;;;12.27;4.70;;;;;;;;;;5067576;28;20159;-83
2024/01/12 11:59:07;;;;;;;11.02;4.85;;;;;;;;;;5068054;28;20021;-81
2024/01/12 12:01:32;;;;;;;13.70;4.90;;;;;;;;;;5066469;28;20035;-81
2024/01/12 12:03:58;;;;;;;12.65;5.75;;;;;;;;;;5063769;28;20025;-81
2024/01/12 12:06:23;;;;;;;12.70;5.25;;;;;;;;;;5064853;28;20031;-81
2024/01/12 12:08:52;;;;;;;10.68;4.75;;;;;;;;;;5053972;28;20050;-81
2024/01/12 12:11:18;;;;;;;12.38;5.32;;;;;;;;;;5067586;28;20030;-80
2024/01/12 12:13:45;;;;;;;12.82;5.32;;;;;;;;;;5063586;28;20024;-81
2024/01/12 12:16:11;;;;;;;10.75;4.95;;;;;;;;;;5072521;28;20032;-81
2024/01/12 12:18:36;;;;;;;11.43;4.75;;;;;;;;;;5069940;28;20233;-81
2024/01/12 12:21:02;;;;;;;11.82;5.45;;;;;;;;;;5065020;28;20107;-80
2024/01/12 12:23:29;;;;;;;12.57;4.70;;;;;;;;;;5049771;28;20047;-81
2024/01/12 12:25:55;;;;;;;10.82;4.97;;;;;;;;;;5061743;28;20028;-81
2024/01/12 12:28:23;;;;;;;13.32;5.38;;;;;;;;;;5054569;28;20024;-81
2024/01/12 12:30:53;;;;;;;17.90;5.60;;;;;;;;;;5070256;28;20573;-80
2024/01/12 12:33:22;;;;;;;12.95;5.20;;;;;;;;;;5073616;28;20028;-80
2024/01/12 12:35:47;;;;;;;13.40;5.05;;;;;;;;;;5073320;28;20020;-80
2024/01/12 12:38:14;;;;;;;16.75;5.50;;;;;;;;;;5055085;28;20020;-80
2024/01/12 12:40:44;;;;;;;13.75;5.88;;;;;;;;;;5071459;28;20035;-80
2024/01/12 12:43:10;;;;;;;12.80;5.05;;;;;;;;;;5071391;28;20020;-80
2024/01/12 12:45:37;;;;;;;16.17;6.00;;;;;;;;;;5065602;28;20025;-81
2024/01/12 12:48:04;;;;;;;12.80;5.32;;;;;;;;;;5068328;28;20024;-80
2024/01/12 12:50:30;;;;;;;10.57;5.30;;;;;;;;;;5072429;28;20031;-80
2024/01/12 12:52:55;;;;;;;15.77;5.40;;;;;;;;;;5073133;28;20107;-80
2024/01/12 12:55:22;;;;;;;14.63;5.38;;;;;;;;;;5076267;28;20052;-81
2024/01/12 12:57:47;;;;;;;13.35;4.55;;;;;;;;;;5070780;28;20047;-80
2024/01/12 13:00:14;;;;;;;10.05;4.72;;;;;;;;;;5067931;28;20048;-80
2024/01/12 13:02:39;;;;;;;11.98;5.10;;;;;;;;;;5047127;28;20025;-80
2024/01/12 13:05:06;;;;;;;12.60;4.63;;;;;;;;;;5069356;28;20437;-81
2024/01/12 13:07:31;;;;;;;11.23;4.13;;;;;;;;;;5064337;28;20021;-80
2024/01/12 13:09:57;;;;;;;10.82;4.20;;;;;;;;;;5074628;28;20397;-80
2024/01/12 13:12:23;;;;;;;12.48;4.20;;;;;;;;;;5067346;28;20513;-80
2024/01/12 13:14:48;;;;;;;13.75;4.38;;;;;;;;;;5043344;28;20028;-80
2024/01/12 13:17:14;;;;;;;9.77;4.03;;;;;;;;;;5068658;28;20021;-79
2024/01/12 13:19:40;;;;;;;10.35;4.00;;;;;;;;;;5066715;28;20028;-80
2024/01/12 13:22:06;;;;;;;9.13;3.80;;;;;;;;;;5061060;28;20207;-80
2024/01/12 13:24:31;;;;;;;11.15;4.22;;;;;;;;;;5069989;28;20028;-80
2024/01/12 13:26:59;;;;;;;10.25;4.07;;;;;;;;;;5066907;28;20029;-80
2024/01/12 13:29:24;;;;;;;11.05;3.50;;;;;;;;;;5066349;28;20044;-80
2024/01/12 13:31:50;;;;;;;11.65;4.05;;;;;;;;;;5054460;28;20064;-79
2024/01/12 13:34:15;;;;;;;13.32;4.20;;;;;;;;;;5064204;28;20025;-80
2024/01/12 13:36:47;;;;;;;11.88;4.15;;;;;;;;;;5068480;28;20020;-80
2024/01/12 13:39:12;;;;;;;11.27;3.47;;;;;;;;;;5061870;28;20024;-80
2024/01/12 13:41:40;;;;;;;10.13;3.67;;;;;;;;;;5063186;28;20032;-80
2024/01/12 13:44:05;;;;;;;12.60;4.60;;;;;;;;;;5075088;28;20116;-80
2024/01/12 13:46:33;;;;;;;8.80;3.95;;;;;;;;;;5068837;28;20488;-80
2024/01/12 13:48:59;;;;;;;9.13;3.72;;;;;;;;;;5068310;28;20062;-79
2024/01/12 13:51:25;;;;;;;9.85;4.07;;;;;;;;;;5063123;28;20052;-80
2024/01/12 13:53:50;;;;;;;13.70;4.28;;;;;;;;;;5062606;28;20024;-80
2024/01/12 13:56:16;;;;;;;9.70;3.90;;;;;;;;;;5060054;28;20081;-80
2024/01/12 13:58:43;;;;;;;10.95;3.70;;;;;;;;;;5046287;28;20029;-80
2024/01/12 14:01:14;;;;;;;14.02;4.18;;;;;;;;;;5064752;28;20032;-81
2024/01/12 14:03:40;;;;;;;13.60;4.20;;;;;;;;;;5062848;28;20031;-80
2024/01/12 14:06:06;;;;;;;11.45;3.53;;;;;;;;;;5069924;28;20082;-80
2024/01/12 14:08:34;;;;;;;8.32;3.30;;;;;;;;;;5068574;28;20028;-81
2024/01/12 14:11:01;;;;;;;7.88;3.40;;;;;;;;;;5062410;28;20029;-80
2024/01/12 14:13:28;;;;;;;9.00;3.50;;;;;;;;;;5063226;28;20046;-80
2024/01/12 14:15:53;;;;;;;10.00;3.05;;;;;;;;;;5050064;28;20024;-80
2024/01/12 14:18:19;;;;;;;7.55;3.08;;;;;;;;;;5063039;28;20027;-83
2024/01/12 14:20:45;;;;;;;11.43;3.10;;;;;;;;;;5067737;28;20426;-83